sensor_id;sensor_type;location;lat;lon;timestamp;P1;durP1;ratioP1;P2;durP2;ratioP2
68386;SDS011;55338;43.062;25.624;2023-02-18T00:01:07;29.60;;;13.00;;
68386;SDS011;55338;43.062;25.624;2023-02-18T00:03:34;28.83;;;12.80;;
68386;SDS011;55338;43.062;25.624;2023-02-18T00:06:00;33.75;;;13.55;;
68386;SDS011;55338;43.062;25.624;2023-02-18T00:08:35;31.47;;;14.43;;
68386;SDS011;55338;43.062;25.624;2023-02-18T00:11:01;31.92;;;13.25;;
68386;SDS011;55338;43.062;25.624;2023-02-18T00:14:01;34.30;;;13.52;;
68386;SDS011;55338;43.062;25.624;2023-02-18T00:16:29;31.15;;;13.48;;
68386;SDS011;55338;43.062;25.624;2023-02-18T00:18:56;36.80;;;13.27;;
68386;SDS011;55338;43.062;25.624;2023-02-18T00:21:26;31.95;;;12.35;;
68386;SDS011;55338;43.062;25.624;2023-02-18T00:23:52;31.48;;;13.63;;
68386;SDS011;55338;43.062;25.624;2023-02-18T00:26:18;32.30;;;13.98;;
68386;SDS011;55338;43.062;25.624;2023-02-18T00:28:45;36.85;;;14.82;;
68386;SDS011;55338;43.062;25.624;2023-02-18T00:31:34;29.70;;;13.50;;
68386;SDS011;55338;43.062;25.624;2023-02-18T00:34:00;31.48;;;13.38;;
68386;SDS011;55338;43.062;25.624;2023-02-18T00:36:27;27.40;;;11.77;;
68386;SDS011;55338;43.062;25.624;2023-02-18T00:38:55;35.22;;;14.25;;
68386;SDS011;55338;43.062;25.624;2023-02-18T00:41:24;32.53;;;14.25;;
68386;SDS011;55338;43.062;25.624;2023-02-18T00:44:23;36.13;;;13.67;;
68386;SDS011;55338;43.062;25.624;2023-02-18T00:46:55;34.72;;;15.05;;
68386;SDS011;55338;43.062;25.624;2023-02-18T00:49:21;31.15;;;13.98;;
68386;SDS011;55338;43.062;25.624;2023-02-18T00:51:47;33.20;;;13.03;;
68386;SDS011;55338;43.062;25.624;2023-02-18T00:54:13;24.38;;;12.32;;
68386;SDS011;55338;43.062;25.624;2023-02-18T00:56:38;35.27;;;13.60;;
68386;SDS011;55338;43.062;25.624;2023-02-18T00:59:04;38.70;;;13.45;;
68386;SDS011;55338;43.062;25.624;2023-02-18T01:01:30;32.37;;;13.37;;
68386;SDS011;55338;43.062;25.624;2023-02-18T01:03:55;29.33;;;13.10;;
68386;SDS011;55338;43.062;25.624;2023-02-18T01:06:21;33.20;;;14.60;;
68386;SDS011;55338;43.062;25.624;2023-02-18T01:08:47;34.65;;;14.25;;
68386;SDS011;55338;43.062;25.624;2023-02-18T01:11:14;31.25;;;13.02;;
68386;SDS011;55338;43.062;25.624;2023-02-18T01:13:40;33.67;;;13.23;;
68386;SDS011;55338;43.062;25.624;2023-02-18T01:16:38;28.95;;;11.48;;
68386;SDS011;55338;43.062;25.624;2023-02-18T01:19:36;26.88;;;11.68;;
68386;SDS011;55338;43.062;25.624;2023-02-18T01:22:04;39.35;;;11.93;;
68386;SDS011;55338;43.062;25.624;2023-02-18T01:24:31;36.33;;;13.50;;
68386;SDS011;55338;43.062;25.624;2023-02-18T01:26:57;29.50;;;13.60;;
68386;SDS011;55338;43.062;25.624;2023-02-18T01:29:22;32.70;;;15.00;;
68386;SDS011;55338;43.062;25.624;2023-02-18T01:32:20;32.15;;;15.50;;
68386;SDS011;55338;43.062;25.624;2023-02-18T01:35:19;31.05;;;14.23;;
68386;SDS011;55338;43.062;25.624;2023-02-18T01:37:45;33.07;;;15.27;;
68386;SDS011;55338;43.062;25.624;2023-02-18T01:40:11;38.25;;;15.30;;
68386;SDS011;55338;43.062;25.624;2023-02-18T01:42:39;36.63;;;15.32;;
68386;SDS011;55338;43.062;25.624;2023-02-18T01:50:37;32.90;;;13.77;;
68386;SDS011;55338;43.062;25.624;2023-02-18T01:53:05;30.33;;;12.90;;
68386;SDS011;55338;43.062;25.624;2023-02-18T01:58:32;36.42;;;14.20;;
68386;SDS011;55338;43.062;25.624;2023-02-18T02:00:59;44.10;;;16.08;;
68386;SDS011;55338;43.062;25.624;2023-02-18T02:03:25;49.83;;;16.97;;
68386;SDS011;55338;43.062;25.624;2023-02-18T02:05:50;38.95;;;15.85;;
68386;SDS011;55338;43.062;25.624;2023-02-18T02:08:16;37.93;;;14.87;;
68386;SDS011;55338;43.062;25.624;2023-02-18T02:13:47;31.15;;;13.82;;
68386;SDS011;55338;43.062;25.624;2023-02-18T02:16:40;34.93;;;13.93;;
68386;SDS011;55338;43.062;25.624;2023-02-18T02:22:44;31.25;;;14.10;;
68386;SDS011;55338;43.062;25.624;2023-02-18T02:39:38;39.53;;;14.75;;
68386;SDS011;55338;43.062;25.624;2023-02-18T02:48:50;42.20;;;15.00;;
68386;SDS011;55338;43.062;25.624;2023-02-18T02:51:25;36.00;;;15.90;;
68386;SDS011;55338;43.062;25.624;2023-02-18T02:54:07;34.15;;;15.80;;
68386;SDS011;55338;43.062;25.624;2023-02-18T02:56:48;36.80;;;13.95;;
68386;SDS011;55338;43.062;25.624;2023-02-18T02:59:18;33.27;;;15.17;;
68386;SDS011;55338;43.062;25.624;2023-02-18T03:10:11;37.75;;;14.57;;
68386;SDS011;55338;43.062;25.624;2023-02-18T03:18:22;43.35;;;15.30;;
68386;SDS011;55338;43.062;25.624;2023-02-18T03:26:35;40.17;;;16.20;;
68386;SDS011;55338;43.062;25.624;2023-02-18T03:29:06;41.50;;;16.33;;
68386;SDS011;55338;43.062;25.624;2023-02-18T03:31:34;42.15;;;15.15;;
68386;SDS011;55338;43.062;25.624;2023-02-18T03:34:06;35.28;;;15.38;;
68386;SDS011;55338;43.062;25.624;2023-02-18T03:37:12;30.58;;;13.70;;
68386;SDS011;55338;43.062;25.624;2023-02-18T03:40:11;41.40;;;15.47;;
68386;SDS011;55338;43.062;25.624;2023-02-18T03:42:38;41.70;;;16.70;;
68386;SDS011;55338;43.062;25.624;2023-02-18T03:45:04;38.92;;;16.67;;
68386;SDS011;55338;43.062;25.624;2023-02-18T03:47:30;41.53;;;17.25;;
68386;SDS011;55338;43.062;25.624;2023-02-18T03:49:57;46.47;;;19.57;;
68386;SDS011;55338;43.062;25.624;2023-02-18T03:52:22;46.88;;;17.50;;
68386;SDS011;55338;43.062;25.624;2023-02-18T03:54:48;48.10;;;18.25;;
68386;SDS011;55338;43.062;25.624;2023-02-18T03:57:14;42.23;;;17.00;;
68386;SDS011;55338;43.062;25.624;2023-02-18T03:59:40;41.00;;;16.35;;
68386;SDS011;55338;43.062;25.624;2023-02-18T04:02:06;47.95;;;18.20;;
68386;SDS011;55338;43.062;25.624;2023-02-18T04:04:32;51.77;;;17.50;;
68386;SDS011;55338;43.062;25.624;2023-02-18T04:06:57;43.78;;;17.10;;
68386;SDS011;55338;43.062;25.624;2023-02-18T04:09:23;46.80;;;19.37;;
68386;SDS011;55338;43.062;25.624;2023-02-18T04:11:50;38.67;;;17.30;;
68386;SDS011;55338;43.062;25.624;2023-02-18T04:14:16;38.87;;;16.13;;
68386;SDS011;55338;43.062;25.624;2023-02-18T04:16:41;41.50;;;17.15;;
68386;SDS011;55338;43.062;25.624;2023-02-18T04:19:07;35.42;;;15.20;;
68386;SDS011;55338;43.062;25.624;2023-02-18T04:21:33;39.63;;;17.33;;
68386;SDS011;55338;43.062;25.624;2023-02-18T04:23:59;44.60;;;17.15;;
68386;SDS011;55338;43.062;25.624;2023-02-18T04:26:25;37.72;;;15.35;;
68386;SDS011;55338;43.062;25.624;2023-02-18T04:28:51;37.60;;;16.40;;
68386;SDS011;55338;43.062;25.624;2023-02-18T04:31:17;43.90;;;16.08;;
68386;SDS011;55338;43.062;25.624;2023-02-18T04:33:42;41.90;;;16.33;;
68386;SDS011;55338;43.062;25.624;2023-02-18T04:36:08;41.10;;;17.25;;
68386;SDS011;55338;43.062;25.624;2023-02-18T04:38:34;43.77;;;17.23;;
68386;SDS011;55338;43.062;25.624;2023-02-18T04:41:00;40.92;;;18.00;;
68386;SDS011;55338;43.062;25.624;2023-02-18T04:43:58;43.05;;;18.40;;
68386;SDS011;55338;43.062;25.624;2023-02-18T04:46:31;43.83;;;16.20;;
68386;SDS011;55338;43.062;25.624;2023-02-18T04:48:57;40.42;;;15.60;;
68386;SDS011;55338;43.062;25.624;2023-02-18T04:51:22;36.83;;;17.20;;
68386;SDS011;55338;43.062;25.624;2023-02-18T04:53:48;44.93;;;18.97;;
68386;SDS011;55338;43.062;25.624;2023-02-18T04:56:14;48.15;;;17.08;;
68386;SDS011;55338;43.062;25.624;2023-02-18T04:58:40;46.05;;;16.52;;
68386;SDS011;55338;43.062;25.624;2023-02-18T05:01:06;42.75;;;18.00;;
68386;SDS011;55338;43.062;25.624;2023-02-18T05:04:03;48.40;;;16.63;;
68386;SDS011;55338;43.062;25.624;2023-02-18T05:06:29;47.63;;;16.80;;
68386;SDS011;55338;43.062;25.624;2023-02-18T05:08:55;45.17;;;16.77;;
68386;SDS011;55338;43.062;25.624;2023-02-18T05:11:20;41.23;;;16.10;;
68386;SDS011;55338;43.062;25.624;2023-02-18T05:13:46;63.40;;;18.67;;
68386;SDS011;55338;43.062;25.624;2023-02-18T05:16:12;42.30;;;18.07;;
68386;SDS011;55338;43.062;25.624;2023-02-18T05:18:38;43.67;;;16.48;;
68386;SDS011;55338;43.062;25.624;2023-02-18T05:21:04;38.92;;;17.15;;
68386;SDS011;55338;43.062;25.624;2023-02-18T05:23:30;43.83;;;16.73;;
68386;SDS011;55338;43.062;25.624;2023-02-18T05:25:55;41.30;;;16.98;;
68386;SDS011;55338;43.062;25.624;2023-02-18T05:28:21;43.80;;;16.83;;
68386;SDS011;55338;43.062;25.624;2023-02-18T05:30:56;43.97;;;17.30;;
68386;SDS011;55338;43.062;25.624;2023-02-18T05:33:22;40.63;;;16.25;;
68386;SDS011;55338;43.062;25.624;2023-02-18T05:35:48;39.92;;;15.77;;
68386;SDS011;55338;43.062;25.624;2023-02-18T05:38:14;44.40;;;16.87;;
68386;SDS011;55338;43.062;25.624;2023-02-18T05:40:39;41.90;;;16.48;;
68386;SDS011;55338;43.062;25.624;2023-02-18T05:43:05;46.37;;;17.87;;
68386;SDS011;55338;43.062;25.624;2023-02-18T05:45:31;49.10;;;18.85;;
68386;SDS011;55338;43.062;25.624;2023-02-18T05:47:57;41.70;;;17.50;;
68386;SDS011;55338;43.062;25.624;2023-02-18T05:50:55;43.83;;;17.58;;
68386;SDS011;55338;43.062;25.624;2023-02-18T05:53:20;49.40;;;17.58;;
68386;SDS011;55338;43.062;25.624;2023-02-18T05:55:46;52.47;;;17.80;;
68386;SDS011;55338;43.062;25.624;2023-02-18T05:58:12;44.92;;;16.45;;
68386;SDS011;55338;43.062;25.624;2023-02-18T06:00:37;42.90;;;17.80;;
68386;SDS011;55338;43.062;25.624;2023-02-18T06:03:03;54.10;;;18.38;;
68386;SDS011;55338;43.062;25.624;2023-02-18T06:05:29;45.87;;;17.83;;
68386;SDS011;55338;43.062;25.624;2023-02-18T06:07:54;50.80;;;17.73;;
68386;SDS011;55338;43.062;25.624;2023-02-18T06:10:20;39.63;;;17.03;;
68386;SDS011;55338;43.062;25.624;2023-02-18T06:12:46;44.57;;;18.17;;
68386;SDS011;55338;43.062;25.624;2023-02-18T06:15:11;43.38;;;17.80;;
68386;SDS011;55338;43.062;25.624;2023-02-18T06:17:37;49.77;;;18.97;;
68386;SDS011;55338;43.062;25.624;2023-02-18T06:20:36;45.08;;;18.63;;
68386;SDS011;55338;43.062;25.624;2023-02-18T06:23:35;43.70;;;18.42;;
68386;SDS011;55338;43.062;25.624;2023-02-18T06:26:01;51.65;;;17.83;;
68386;SDS011;55338;43.062;25.624;2023-02-18T06:28:27;54.23;;;20.37;;
68386;SDS011;55338;43.062;25.624;2023-02-18T06:30:53;53.60;;;22.23;;
68386;SDS011;55338;43.062;25.624;2023-02-18T06:33:18;49.30;;;19.30;;
68386;SDS011;55338;43.062;25.624;2023-02-18T06:36:01;45.45;;;19.73;;
68386;SDS011;55338;43.062;25.624;2023-02-18T06:38:32;44.93;;;19.40;;
68386;SDS011;55338;43.062;25.624;2023-02-18T06:40:59;49.63;;;19.10;;
68386;SDS011;55338;43.062;25.624;2023-02-18T06:43:25;50.88;;;21.00;;
68386;SDS011;55338;43.062;25.624;2023-02-18T06:45:51;50.05;;;21.90;;
68386;SDS011;55338;43.062;25.624;2023-02-18T06:48:17;80.07;;;31.42;;
68386;SDS011;55338;43.062;25.624;2023-02-18T06:51:16;91.93;;;35.55;;
68386;SDS011;55338;43.062;25.624;2023-02-18T06:53:50;91.18;;;35.88;;
68386;SDS011;55338;43.062;25.624;2023-02-18T06:56:16;79.03;;;32.33;;
68386;SDS011;55338;43.062;25.624;2023-02-18T06:58:41;56.38;;;23.77;;
68386;SDS011;55338;43.062;25.624;2023-02-18T07:01:07;48.33;;;22.60;;
68386;SDS011;55338;43.062;25.624;2023-02-18T07:03:33;57.88;;;23.00;;
68386;SDS011;55338;43.062;25.624;2023-02-18T07:05:59;58.78;;;22.70;;
68386;SDS011;55338;43.062;25.624;2023-02-18T07:08:25;47.87;;;20.87;;
68386;SDS011;55338;43.062;25.624;2023-02-18T07:10:51;56.15;;;23.23;;
68386;SDS011;55338;43.062;25.624;2023-02-18T07:13:17;57.70;;;24.00;;
68386;SDS011;55338;43.062;25.624;2023-02-18T07:16:15;55.83;;;23.65;;
68386;SDS011;55338;43.062;25.624;2023-02-18T07:19:12;53.75;;;22.65;;
68386;SDS011;55338;43.062;25.624;2023-02-18T07:21:38;74.60;;;24.20;;
68386;SDS011;55338;43.062;25.624;2023-02-18T07:24:04;80.60;;;27.13;;
68386;SDS011;55338;43.062;25.624;2023-02-18T07:26:30;61.25;;;24.27;;
68386;SDS011;55338;43.062;25.624;2023-02-18T07:28:56;64.40;;;25.88;;
68386;SDS011;55338;43.062;25.624;2023-02-18T07:31:21;70.13;;;26.37;;
68386;SDS011;55338;43.062;25.624;2023-02-18T07:33:47;76.95;;;25.67;;
68386;SDS011;55338;43.062;25.624;2023-02-18T07:43:46;66.25;;;26.08;;
68386;SDS011;55338;43.062;25.624;2023-02-18T07:46:12;65.95;;;24.73;;
68386;SDS011;55338;43.062;25.624;2023-02-18T07:48:38;59.60;;;24.23;;
68386;SDS011;55338;43.062;25.624;2023-02-18T07:51:07;53.63;;;23.75;;
68386;SDS011;55338;43.062;25.624;2023-02-18T07:53:34;62.20;;;24.10;;
68386;SDS011;55338;43.062;25.624;2023-02-18T07:56:33;61.58;;;25.85;;
68386;SDS011;55338;43.062;25.624;2023-02-18T07:59:31;75.75;;;24.98;;
68386;SDS011;55338;43.062;25.624;2023-02-18T08:01:56;71.05;;;24.55;;
68386;SDS011;55338;43.062;25.624;2023-02-18T08:04:22;49.90;;;23.70;;
68386;SDS011;55338;43.062;25.624;2023-02-18T08:06:48;64.78;;;26.33;;
68386;SDS011;55338;43.062;25.624;2023-02-18T08:09:15;63.85;;;27.48;;
68386;SDS011;55338;43.062;25.624;2023-02-18T08:11:41;62.35;;;28.48;;
68386;SDS011;55338;43.062;25.624;2023-02-18T08:14:08;58.17;;;26.23;;
68386;SDS011;55338;43.062;25.624;2023-02-18T08:16:33;46.00;;;23.23;;
68386;SDS011;55338;43.062;25.624;2023-02-18T08:19:32;50.53;;;23.02;;
68386;SDS011;55338;43.062;25.624;2023-02-18T08:22:30;60.85;;;22.63;;
68386;SDS011;55338;43.062;25.624;2023-02-18T08:24:55;61.55;;;21.80;;
68386;SDS011;55338;43.062;25.624;2023-02-18T08:27:21;57.33;;;22.73;;
68386;SDS011;55338;43.062;25.624;2023-02-18T08:29:47;47.47;;;22.48;;
68386;SDS011;55338;43.062;25.624;2023-02-18T08:32:13;49.13;;;21.88;;
68386;SDS011;55338;43.062;25.624;2023-02-18T08:34:39;51.10;;;22.60;;
68386;SDS011;55338;43.062;25.624;2023-02-18T08:37:04;51.45;;;24.45;;
68386;SDS011;55338;43.062;25.624;2023-02-18T08:39:33;48.57;;;24.07;;
68386;SDS011;55338;43.062;25.624;2023-02-18T08:42:00;44.80;;;22.98;;
68386;SDS011;55338;43.062;25.624;2023-02-18T08:44:26;49.83;;;23.40;;
68386;SDS011;55338;43.062;25.624;2023-02-18T08:47:21;40.83;;;22.23;;
68386;SDS011;55338;43.062;25.624;2023-02-18T08:49:46;50.03;;;22.17;;
68386;SDS011;55338;43.062;25.624;2023-02-18T08:52:12;43.75;;;22.63;;
68386;SDS011;55338;43.062;25.624;2023-02-18T08:54:38;45.10;;;22.37;;
68386;SDS011;55338;43.062;25.624;2023-02-18T08:57:04;48.72;;;21.45;;
68386;SDS011;55338;43.062;25.624;2023-02-18T08:59:29;48.13;;;22.53;;
68386;SDS011;55338;43.062;25.624;2023-02-18T09:01:55;51.60;;;23.58;;
68386;SDS011;55338;43.062;25.624;2023-02-18T09:04:21;44.40;;;20.93;;
68386;SDS011;55338;43.062;25.624;2023-02-18T09:06:47;52.35;;;25.45;;
68386;SDS011;55338;43.062;25.624;2023-02-18T09:09:14;52.97;;;25.73;;
68386;SDS011;55338;43.062;25.624;2023-02-18T09:11:41;53.55;;;25.92;;
68386;SDS011;55338;43.062;25.624;2023-02-18T09:14:07;52.65;;;25.38;;
68386;SDS011;55338;43.062;25.624;2023-02-18T09:16:33;55.77;;;25.93;;
68386;SDS011;55338;43.062;25.624;2023-02-18T09:18:59;55.60;;;26.33;;
68386;SDS011;55338;43.062;25.624;2023-02-18T09:21:26;50.00;;;26.02;;
68386;SDS011;55338;43.062;25.624;2023-02-18T09:23:52;54.88;;;27.15;;
68386;SDS011;55338;43.062;25.624;2023-02-18T09:26:18;64.50;;;27.30;;
68386;SDS011;55338;43.062;25.624;2023-02-18T09:28:47;60.97;;;27.77;;
68386;SDS011;55338;43.062;25.624;2023-02-18T09:31:15;57.47;;;28.05;;
68386;SDS011;55338;43.062;25.624;2023-02-18T09:33:44;60.05;;;30.25;;
68386;SDS011;55338;43.062;25.624;2023-02-18T09:36:17;87.97;;;39.13;;
68386;SDS011;55338;43.062;25.624;2023-02-18T09:38:44;37.50;;;17.42;;
68386;SDS011;55338;43.062;25.624;2023-02-18T09:41:17;33.10;;;14.60;;
68386;SDS011;55338;43.062;25.624;2023-02-18T09:43:54;20.55;;;7.78;;
68386;SDS011;55338;43.062;25.624;2023-02-18T09:46:29;23.15;;;9.93;;
68386;SDS011;55338;43.062;25.624;2023-02-18T09:49:02;57.00;;;10.30;;
68386;SDS011;55338;43.062;25.624;2023-02-18T09:51:35;16.05;;;5.18;;
68386;SDS011;55338;43.062;25.624;2023-02-18T09:54:01;8.40;;;3.20;;
68386;SDS011;55338;43.062;25.624;2023-02-18T09:56:28;13.67;;;5.17;;
68386;SDS011;55338;43.062;25.624;2023-02-18T09:58:57;21.25;;;6.20;;
68386;SDS011;55338;43.062;25.624;2023-02-18T10:01:33;14.13;;;6.95;;
68386;SDS011;55338;43.062;25.624;2023-02-18T10:06:56;11.40;;;5.27;;
68386;SDS011;55338;43.062;25.624;2023-02-18T10:09:30;11.85;;;3.60;;
68386;SDS011;55338;43.062;25.624;2023-02-18T10:12:03;10.27;;;4.45;;
68386;SDS011;55338;43.062;25.624;2023-02-18T10:14:48;6.45;;;3.25;;
68386;SDS011;55338;43.062;25.624;2023-02-18T10:17:15;8.25;;;2.88;;
68386;SDS011;55338;43.062;25.624;2023-02-18T10:19:42;9.30;;;3.33;;
68386;SDS011;55338;43.062;25.624;2023-02-18T10:22:11;8.65;;;3.80;;
68386;SDS011;55338;43.062;25.624;2023-02-18T10:24:41;17.27;;;6.55;;
68386;SDS011;55338;43.062;25.624;2023-02-18T10:27:17;8.23;;;4.95;;
68386;SDS011;55338;43.062;25.624;2023-02-18T10:29:53;13.65;;;6.57;;
68386;SDS011;55338;43.062;25.624;2023-02-18T10:32:46;16.93;;;6.57;;
68386;SDS011;55338;43.062;25.624;2023-02-18T10:46:33;29.13;;;15.97;;
68386;SDS011;55338;43.062;25.624;2023-02-18T10:52:13;14.18;;;7.57;;
68386;SDS011;55338;43.062;25.624;2023-02-18T10:57:28;21.95;;;11.80;;
68386;SDS011;55338;43.062;25.624;2023-02-18T10:59:56;33.77;;;15.10;;
68386;SDS011;55338;43.062;25.624;2023-02-18T11:02:34;23.55;;;7.97;;
68386;SDS011;55338;43.062;25.624;2023-02-18T11:05:04;27.42;;;10.68;;
68386;SDS011;55338;43.062;25.624;2023-02-18T11:07:52;23.58;;;11.60;;
68386;SDS011;55338;43.062;25.624;2023-02-18T11:12:50;39.00;;;11.67;;
68386;SDS011;55338;43.062;25.624;2023-02-18T11:15:21;16.27;;;7.65;;
68386;SDS011;55338;43.062;25.624;2023-02-18T11:17:53;18.50;;;5.93;;
68386;SDS011;55338;43.062;25.624;2023-02-18T11:20:25;11.05;;;4.55;;
68386;SDS011;55338;43.062;25.624;2023-02-18T11:23:18;13.27;;;4.68;;
68386;SDS011;55338;43.062;25.624;2023-02-18T11:26:02;16.00;;;5.50;;
68386;SDS011;55338;43.062;25.624;2023-02-18T11:31:19;25.17;;;10.68;;
68386;SDS011;55338;43.062;25.624;2023-02-18T11:33:49;30.13;;;13.80;;
68386;SDS011;55338;43.062;25.624;2023-02-18T11:39:04;18.47;;;7.63;;
68386;SDS011;55338;43.062;25.624;2023-02-18T11:41:57;14.15;;;4.90;;
68386;SDS011;55338;43.062;25.624;2023-02-18T11:46:56;12.73;;;4.28;;
68386;SDS011;55338;43.062;25.624;2023-02-18T11:49:24;29.35;;;9.25;;
68386;SDS011;55338;43.062;25.624;2023-02-18T11:51:50;19.77;;;9.83;;
68386;SDS011;55338;43.062;25.624;2023-02-18T11:54:24;15.63;;;6.07;;
68386;SDS011;55338;43.062;25.624;2023-02-18T11:56:56;11.98;;;5.22;;
68386;SDS011;55338;43.062;25.624;2023-02-18T11:59:25;8.63;;;4.28;;
68386;SDS011;55338;43.062;25.624;2023-02-18T12:02:38;14.98;;;7.00;;
68386;SDS011;55338;43.062;25.624;2023-02-18T12:05:03;10.70;;;3.80;;
68386;SDS011;55338;43.062;25.624;2023-02-18T12:10:41;13.85;;;5.60;;
68386;SDS011;55338;43.062;25.624;2023-02-18T12:23:58;8.68;;;3.53;;
68386;SDS011;55338;43.062;25.624;2023-02-18T12:26:40;9.43;;;3.13;;
68386;SDS011;55338;43.062;25.624;2023-02-18T13:09:50;24.75;;;11.02;;
68386;SDS011;55338;43.062;25.624;2023-02-18T13:12:17;16.92;;;6.13;;
68386;SDS011;55338;43.062;25.624;2023-02-18T13:17:21;17.65;;;9.23;;
68386;SDS011;55338;43.062;25.624;2023-02-18T13:19:58;18.05;;;8.02;;
68386;SDS011;55338;43.062;25.624;2023-02-18T13:22:38;26.33;;;7.80;;
68386;SDS011;55338;43.062;25.624;2023-02-18T13:25:05;18.00;;;6.70;;
68386;SDS011;55338;43.062;25.624;2023-02-18T13:27:53;10.35;;;4.65;;
68386;SDS011;55338;43.062;25.624;2023-02-18T13:36:08;12.05;;;3.78;;
68386;SDS011;55338;43.062;25.624;2023-02-18T13:41:26;10.07;;;2.00;;
68386;SDS011;55338;43.062;25.624;2023-02-18T13:43:52;8.52;;;4.63;;
68386;SDS011;55338;43.062;25.624;2023-02-18T13:46:25;8.05;;;4.30;;
68386;SDS011;55338;43.062;25.624;2023-02-18T13:49:09;9.95;;;2.15;;
68386;SDS011;55338;43.062;25.624;2023-02-18T13:51:39;6.90;;;2.87;;
68386;SDS011;55338;43.062;25.624;2023-02-18T13:54:15;5.70;;;1.95;;
68386;SDS011;55338;43.062;25.624;2023-02-18T13:56:49;8.38;;;2.58;;
68386;SDS011;55338;43.062;25.624;2023-02-18T14:00:12;3.50;;;1.70;;
68386;SDS011;55338;43.062;25.624;2023-02-18T14:02:33;7.63;;;2.50;;
68386;SDS011;55338;43.062;25.624;2023-02-18T14:13:16;8.85;;;2.25;;
68386;SDS011;55338;43.062;25.624;2023-02-18T14:18:31;9.87;;;2.70;;
68386;SDS011;55338;43.062;25.624;2023-02-18T14:21:48;12.07;;;2.78;;
68386;SDS011;55338;43.062;25.624;2023-02-18T14:24:08;4.80;;;1.83;;
68386;SDS011;55338;43.062;25.624;2023-02-18T14:26:37;7.35;;;2.78;;
68386;SDS011;55338;43.062;25.624;2023-02-18T14:29:10;8.60;;;2.45;;
68386;SDS011;55338;43.062;25.624;2023-02-18T14:31:49;14.93;;;3.20;;
68386;SDS011;55338;43.062;25.624;2023-02-18T14:42:27;5.72;;;2.10;;
68386;SDS011;55338;43.062;25.624;2023-02-18T14:45:10;3.50;;;1.63;;
68386;SDS011;55338;43.062;25.624;2023-02-18T14:50:54;4.90;;;1.77;;
68386;SDS011;55338;43.062;25.624;2023-02-18T14:53:24;9.13;;;2.58;;
68386;SDS011;55338;43.062;25.624;2023-02-18T14:55:57;7.65;;;1.60;;
68386;SDS011;55338;43.062;25.624;2023-02-18T14:58:29;8.00;;;2.03;;
68386;SDS011;55338;43.062;25.624;2023-02-18T15:01:18;5.03;;;2.10;;
68386;SDS011;55338;43.062;25.624;2023-02-18T15:03:50;8.10;;;2.17;;
68386;SDS011;55338;43.062;25.624;2023-02-18T15:06:24;4.88;;;2.10;;
68386;SDS011;55338;43.062;25.624;2023-02-18T15:08:53;6.07;;;2.17;;
68386;SDS011;55338;43.062;25.624;2023-02-18T15:11:20;7.70;;;2.00;;
68386;SDS011;55338;43.062;25.624;2023-02-18T15:13:49;5.40;;;2.38;;
68386;SDS011;55338;43.062;25.624;2023-02-18T15:16:20;13.98;;;2.33;;
68386;SDS011;55338;43.062;25.624;2023-02-18T15:19:07;5.68;;;2.30;;
68386;SDS011;55338;43.062;25.624;2023-02-18T15:21:43;10.70;;;2.87;;
68386;SDS011;55338;43.062;25.624;2023-02-18T15:26:49;4.60;;;2.20;;
68386;SDS011;55338;43.062;25.624;2023-02-18T15:29:18;6.60;;;3.05;;
68386;SDS011;55338;43.062;25.624;2023-02-18T15:31:48;11.32;;;2.45;;
68386;SDS011;55338;43.062;25.624;2023-02-18T15:37:05;4.97;;;2.13;;
68386;SDS011;55338;43.062;25.624;2023-02-18T15:39:34;4.18;;;1.58;;
68386;SDS011;55338;43.062;25.624;2023-02-18T15:42:23;5.57;;;1.90;;
68386;SDS011;55338;43.062;25.624;2023-02-18T15:45:20;9.00;;;2.95;;
68386;SDS011;55338;43.062;25.624;2023-02-18T15:47:57;10.97;;;2.63;;
68386;SDS011;55338;43.062;25.624;2023-02-18T15:50:34;9.30;;;4.70;;
68386;SDS011;55338;43.062;25.624;2023-02-18T15:53:05;7.35;;;3.35;;
68386;SDS011;55338;43.062;25.624;2023-02-18T15:55:40;9.55;;;3.00;;
68386;SDS011;55338;43.062;25.624;2023-02-18T15:58:11;9.43;;;2.50;;
68386;SDS011;55338;43.062;25.624;2023-02-18T16:00:50;4.63;;;2.37;;
68386;SDS011;55338;43.062;25.624;2023-02-18T16:03:21;14.00;;;3.38;;
68386;SDS011;55338;43.062;25.624;2023-02-18T16:06:07;6.60;;;2.45;;
68386;SDS011;55338;43.062;25.624;2023-02-18T16:09:33;8.90;;;3.45;;
68386;SDS011;55338;43.062;25.624;2023-02-18T16:11:56;7.85;;;3.40;;
68386;SDS011;55338;43.062;25.624;2023-02-18T16:14:32;9.67;;;4.10;;
68386;SDS011;55338;43.062;25.624;2023-02-18T16:19:32;7.93;;;3.03;;
68386;SDS011;55338;43.062;25.624;2023-02-18T16:22:03;9.75;;;3.58;;
68386;SDS011;55338;43.062;25.624;2023-02-18T16:24:41;12.82;;;5.00;;
68386;SDS011;55338;43.062;25.624;2023-02-18T16:27:07;13.32;;;4.57;;
68386;SDS011;55338;43.062;25.624;2023-02-18T16:29:41;8.30;;;3.70;;
68386;SDS011;55338;43.062;25.624;2023-02-18T16:32:07;11.32;;;4.43;;
68386;SDS011;55338;43.062;25.624;2023-02-18T16:34:33;8.67;;;4.10;;
68386;SDS011;55338;43.062;25.624;2023-02-18T16:37:00;12.77;;;5.10;;
68386;SDS011;55338;43.062;25.624;2023-02-18T16:39:50;7.95;;;4.00;;
68386;SDS011;55338;43.062;25.624;2023-02-18T16:42:18;12.77;;;4.30;;
68386;SDS011;55338;43.062;25.624;2023-02-18T16:44:44;10.85;;;4.65;;
68386;SDS011;55338;43.062;25.624;2023-02-18T16:47:14;8.43;;;3.08;;
68386;SDS011;55338;43.062;25.624;2023-02-18T16:49:42;7.55;;;2.80;;
68386;SDS011;55338;43.062;25.624;2023-02-18T16:52:10;9.38;;;3.85;;
68386;SDS011;55338;43.062;25.624;2023-02-18T16:54:40;13.98;;;5.68;;
68386;SDS011;55338;43.062;25.624;2023-02-18T16:57:05;9.93;;;5.30;;
68386;SDS011;55338;43.062;25.624;2023-02-18T16:59:31;10.63;;;4.80;;
68386;SDS011;55338;43.062;25.624;2023-02-18T17:01:57;17.58;;;5.90;;
68386;SDS011;55338;43.062;25.624;2023-02-18T17:04:22;10.83;;;3.73;;
68386;SDS011;55338;43.062;25.624;2023-02-18T17:06:48;10.68;;;4.47;;
68386;SDS011;55338;43.062;25.624;2023-02-18T17:09:19;7.95;;;3.97;;
68386;SDS011;55338;43.062;25.624;2023-02-18T17:11:48;10.00;;;5.20;;
68386;SDS011;55338;43.062;25.624;2023-02-18T17:14:18;11.52;;;5.28;;
68386;SDS011;55338;43.062;25.624;2023-02-18T17:16:45;9.85;;;5.05;;
68386;SDS011;55338;43.062;25.624;2023-02-18T17:19:13;6.95;;;3.65;;
68386;SDS011;55338;43.062;25.624;2023-02-18T17:21:39;7.88;;;3.50;;
68386;SDS011;55338;43.062;25.624;2023-02-18T17:24:06;6.77;;;2.90;;
68386;SDS011;55338;43.062;25.624;2023-02-18T17:26:38;10.60;;;4.03;;
68386;SDS011;55338;43.062;25.624;2023-02-18T17:29:04;9.07;;;4.20;;
68386;SDS011;55338;43.062;25.624;2023-02-18T17:31:32;11.00;;;5.03;;
68386;SDS011;55338;43.062;25.624;2023-02-18T17:34:03;9.30;;;4.55;;
68386;SDS011;55338;43.062;25.624;2023-02-18T17:36:31;9.18;;;4.78;;
68386;SDS011;55338;43.062;25.624;2023-02-18T17:38:57;8.27;;;4.60;;
68386;SDS011;55338;43.062;25.624;2023-02-18T17:41:27;15.45;;;7.53;;
68386;SDS011;55338;43.062;25.624;2023-02-18T17:43:52;9.83;;;5.60;;
68386;SDS011;55338;43.062;25.624;2023-02-18T17:46:18;10.00;;;6.00;;
68386;SDS011;55338;43.062;25.624;2023-02-18T17:48:45;14.82;;;6.20;;
68386;SDS011;55338;43.062;25.624;2023-02-18T17:53:48;10.70;;;5.05;;